Time;durP1;ratioP1;P1;durP2;ratioP2;P2;SDS_P1;SDS_P2;PMS_P1;PMS_P2;Temp;Humidity;BMP_temperature;BMP_pressure;BME280_temperature;BME280_humidity;BME280_pressure;Samples;Min_cycle;Max_cycle;Signal;HPM_P1;HPM_P2
2021/12/04 00:00:41;;;;;;;205.67;196.23;;;5.10;99.90;;;;;;4423142;32;20156;-62
2021/12/04 00:03:08;;;;;;;206.40;197.00;;;5.10;99.90;;;;;;4410024;32;20179;-63
2021/12/04 00:05:35;;;;;;;202.10;192.77;;;5.00;99.90;;;;;;4420354;32;20186;-63
2021/12/04 00:08:02;;;;;;;206.83;197.23;;;5.10;99.90;;;;;;4412791;32;20170;-63
2021/12/04 00:10:30;;;;;;;209.73;200.33;;;5.20;99.90;;;;;;4422878;32;20147;-63
2021/12/04 00:12:59;;;;;;;211.90;202.37;;;5.00;99.90;;;;;;4423327;32;20633;-63
2021/12/04 00:15:25;;;;;;;193.07;184.20;;;5.10;99.90;;;;;;4415750;32;20179;-63
2021/12/04 00:17:52;;;;;;;216.77;206.80;;;5.10;99.90;;;;;;4421405;32;20611;-63
2021/12/04 00:20:19;;;;;;;211.40;201.47;;;5.10;99.90;;;;;;4415163;32;20171;-63
2021/12/04 00:22:46;;;;;;;204.20;194.73;;;5.10;99.90;;;;;;4416549;32;20151;-64
2021/12/04 00:25:13;;;;;;;205.83;196.50;;;5.20;99.90;;;;;;4419325;32;20202;-63
2021/12/04 00:27:40;;;;;;;204.00;194.33;;;5.20;99.90;;;;;;4421426;32;20223;-63
2021/12/04 00:30:09;;;;;;;203.23;193.90;;;5.10;99.90;;;;;;4416848;32;20270;-64
2021/12/04 00:32:40;;;;;;;202.90;193.53;;;5.20;99.90;;;;;;4409127;32;20220;-64
2021/12/04 00:35:13;;;;;;;230.90;220.43;;;5.20;99.90;;;;;;4420348;32;20159;-62
2021/12/04 00:38:05;;;;;;;207.83;198.23;;;5.20;99.90;;;;;;4417569;32;20156;-62
2021/12/04 00:49:04;;;;;;;191.87;182.83;;;5.20;99.90;;;;;;4422343;32;20170;-62
2021/12/04 00:49:12;;;;;;;206.83;197.30;;;5.20;99.90;;;;;;4417371;32;20475;-64
2021/12/04 00:51:41;;;;;;;197.80;188.30;;;5.20;99.90;;;;;;4412644;32;20160;-63
2021/12/04 00:54:10;;;;;;;211.13;201.13;;;5.20;99.90;;;;;;4420939;32;20206;-64
2021/12/04 00:56:38;;;;;;;211.40;201.20;;;5.20;99.90;;;;;;4413179;32;20206;-63
2021/12/04 00:59:05;;;;;;;206.60;196.57;;;5.20;99.90;;;;;;4419626;32;20614;-63
2021/12/04 01:01:33;;;;;;;218.93;208.47;;;5.20;99.90;;;;;;4410052;32;20215;-63
2021/12/04 01:04:01;;;;;;;204.40;194.63;;;5.30;99.90;;;;;;4420575;32;20171;-63
2021/12/04 01:06:27;;;;;;;208.10;198.03;;;5.30;99.90;;;;;;4419820;32;20234;-63
2021/12/04 01:08:54;;;;;;;193.60;183.87;;;5.30;99.90;;;;;;4422296;32;20609;-63
2021/12/04 01:11:22;;;;;;;199.50;189.63;;;5.20;99.90;;;;;;4407943;32;20215;-63
2021/12/04 01:13:48;;;;;;;189.07;179.77;;;5.30;99.90;;;;;;4416773;32;20175;-63
2021/12/04 01:16:15;;;;;;;219.70;209.27;;;5.30;99.90;;;;;;4412657;32;20170;-64
2021/12/04 01:18:44;;;;;;;211.13;200.80;;;5.30;99.90;;;;;;4417403;32;20203;-63
2021/12/04 01:21:11;;;;;;;204.57;194.47;;;5.20;99.90;;;;;;4420533;32;20223;-63
2021/12/04 01:23:38;;;;;;;209.40;199.00;;;5.20;99.90;;;;;;4421574;32;20151;-63
2021/12/04 01:26:05;;;;;;;205.97;195.73;;;5.20;99.90;;;;;;4420086;32;20228;-63
2021/12/04 01:28:32;;;;;;;216.27;205.40;;;5.20;99.90;;;;;;4422360;32;20158;-63
2021/12/04 01:30:59;;;;;;;201.87;191.67;;;5.30;99.90;;;;;;4415954;32;20155;-64
2021/12/04 01:33:26;;;;;;;199.73;189.43;;;5.30;99.90;;;;;;4421576;32;20569;-64
2021/12/04 01:35:54;;;;;;;212.43;201.13;;;5.30;99.90;;;;;;4418666;32;20167;-64
2021/12/04 01:38:21;;;;;;;203.73;192.97;;;5.20;99.90;;;;;;4416451;32;20215;-63
2021/12/04 01:40:48;;;;;;;211.13;200.03;;;5.20;99.90;;;;;;4420023;32;20195;-64
2021/12/04 01:43:15;;;;;;;200.67;189.33;;;5.20;99.90;;;;;;4427096;32;20154;-64
2021/12/04 01:45:42;;;;;;;189.37;179.13;;;5.20;99.90;;;;;;4428246;32;20193;-64
2021/12/04 01:48:09;;;;;;;215.43;203.97;;;5.30;99.90;;;;;;4430036;32;20653;-63
2021/12/04 01:50:37;;;;;;;221.40;208.90;;;5.30;99.90;;;;;;4423577;32;20244;-62
2021/12/04 01:53:05;;;;;;;204.43;192.60;;;5.30;99.90;;;;;;4423253;32;20609;-63
2021/12/04 01:55:33;;;;;;;218.73;206.30;;;5.30;99.90;;;;;;4421626;32;20210;-63
2021/12/04 01:58:01;;;;;;;216.40;204.50;;;5.30;99.90;;;;;;4421414;32;20504;-63
2021/12/04 02:00:29;;;;;;;202.37;190.53;;;5.30;99.90;;;;;;4420289;32;20246;-62
2021/12/04 02:02:56;;;;;;;201.63;189.53;;;5.20;99.90;;;;;;4411737;32;20148;-62
2021/12/04 02:05:23;;;;;;;204.87;192.80;;;5.20;99.90;;;;;;4420337;32;20540;-62
2021/12/04 02:07:50;;;;;;;202.83;190.63;;;5.20;99.90;;;;;;4417483;32;20599;-63
2021/12/04 02:10:18;;;;;;;211.70;199.33;;;5.20;99.90;;;;;;4414139;32;20207;-63
2021/12/04 02:12:47;;;;;;;208.60;196.80;;;5.30;99.90;;;;;;4409841;32;20503;-63
2021/12/04 02:15:15;;;;;;;215.80;202.93;;;5.30;99.90;;;;;;4420823;32;20196;-63
2021/12/04 02:17:43;;;;;;;233.60;220.40;;;5.30;99.90;;;;;;4420735;32;20601;-62
2021/12/04 02:20:15;;;;;;;225.60;212.50;;;5.30;99.90;;;;;;4418361;32;20151;-63
2021/12/04 02:22:42;;;;;;;211.93;199.40;;;5.30;99.90;;;;;;4421743;32;20538;-63
2021/12/04 02:25:10;;;;;;;216.73;203.67;;;5.30;99.90;;;;;;4419862;32;20175;-63
2021/12/04 02:27:37;;;;;;;233.93;220.23;;;5.30;99.90;;;;;;4409752;32;20163;-63
2021/12/04 02:30:05;;;;;;;218.10;204.47;;;5.30;99.90;;;;;;4416400;32;20611;-63
2021/12/04 02:32:32;;;;;;;227.43;214.40;;;5.30;99.90;;;;;;4416439;32;20152;-62
2021/12/04 02:34:59;;;;;;;221.03;208.07;;;5.30;99.90;;;;;;4424413;32;20182;-63
2021/12/04 02:37:27;;;;;;;239.60;225.53;;;5.40;99.90;;;;;;4416306;32;20175;-62
2021/12/04 02:39:58;;;;;;;223.30;209.27;;;5.40;99.90;;;;;;4422740;32;20210;-63
2021/12/04 02:42:29;;;;;;;232.50;218.60;;;5.40;99.90;;;;;;4422811;32;20174;-63
2021/12/04 02:44:57;;;;;;;220.33;206.43;;;5.40;99.90;;;;;;4420833;32;20163;-63
2021/12/04 02:47:24;;;;;;;218.17;204.67;;;5.40;99.90;;;;;;4421722;32;20178;-62
2021/12/04 02:49:50;;;;;;;224.70;211.30;;;5.40;99.90;;;;;;4424497;32;20163;-62
2021/12/04 02:52:18;;;;;;;212.33;198.27;;;5.40;99.90;;;;;;4415286;32;20592;-63
2021/12/04 02:54:47;;;;;;;194.97;182.00;;;5.50;99.90;;;;;;4418690;32;20185;-63
2021/12/04 02:57:15;;;;;;;187.27;174.77;;;5.50;99.90;;;;;;4422087;32;20185;-63
2021/12/04 02:59:43;;;;;;;196.37;183.27;;;5.50;99.90;;;;;;4423633;32;20151;-63
2021/12/04 03:02:17;;;;;;;197.50;184.53;;;5.40;99.90;;;;;;4424225;32;20147;-63
2021/12/04 03:04:44;;;;;;;206.57;193.63;;;5.50;99.90;;;;;;4418420;32;20169;-63
2021/12/04 03:07:11;;;;;;;207.07;194.23;;;5.50;99.90;;;;;;4422255;32;20151;-62
2021/12/04 03:09:38;;;;;;;219.20;205.37;;;5.50;99.90;;;;;;4419163;32;20210;-63
2021/12/04 03:12:08;;;;;;;207.43;194.00;;;5.50;99.90;;;;;;4413397;32;20229;-62
2021/12/04 03:14:35;;;;;;;195.33;182.83;;;5.40;99.90;;;;;;4419914;32;20226;-63
2021/12/04 03:17:03;;;;;;;202.23;189.23;;;5.40;99.90;;;;;;4423805;32;20155;-63
2021/12/04 03:19:30;;;;;;;217.97;203.73;;;5.40;99.90;;;;;;4420240;32;20182;-63
2021/12/04 03:21:57;;;;;;;209.47;195.67;;;5.50;99.90;;;;;;4414242;32;20179;-63
2021/12/04 03:24:25;;;;;;;188.70;175.93;;;5.50;99.90;;;;;;4423132;32;20487;-63
2021/12/04 03:26:52;;;;;;;189.93;177.90;;;5.50;99.90;;;;;;4411106;32;20160;-63
2021/12/04 03:29:23;;;;;;;186.97;174.97;;;5.50;99.90;;;;;;4419966;32;20195;-63
2021/12/04 03:32:15;;;;;;;182.67;170.37;;;5.50;99.90;;;;;;4412589;32;20147;-63
2021/12/04 03:40:24;;;;;;;207.33;192.17;;;5.50;99.90;;;;;;4422933;32;20159;-62
2021/12/04 03:42:53;;;;;;;213.17;199.77;;;5.50;99.90;;;;;;4422645;32;20481;-63
2021/12/04 03:45:21;;;;;;;216.07;202.47;;;5.50;99.90;;;;;;4421785;32;20170;-63
2021/12/04 03:47:51;;;;;;;207.73;194.47;;;5.60;99.90;;;;;;4417433;32;20153;-62
2021/12/04 03:50:17;;;;;;;193.77;180.73;;;5.60;99.90;;;;;;4418677;32;20152;-63
2021/12/04 03:52:45;;;;;;;213.93;199.73;;;5.50;99.90;;;;;;4423429;32;20650;-62
2021/12/04 03:55:13;;;;;;;206.00;192.77;;;5.60;99.90;;;;;;4409923;32;20233;-62
2021/12/04 03:57:44;;;;;;;204.17;190.93;;;5.60;99.90;;;;;;4421648;32;20168;-63
2021/12/04 04:00:13;;;;;;;208.77;195.60;;;5.50;99.90;;;;;;4416740;32;20152;-63
2021/12/04 04:02:41;;;;;;;210.93;197.47;;;5.60;99.90;;;;;;4417948;32;20218;-62
2021/12/04 04:05:09;;;;;;;208.43;195.83;;;5.70;99.90;;;;;;4422536;32;20559;-63
2021/12/04 04:07:36;;;;;;;198.83;186.23;;;5.60;99.90;;;;;;4421629;32;20202;-62
2021/12/04 04:10:03;;;;;;;201.17;188.43;;;5.60;99.90;;;;;;4422587;32;20163;-62
2021/12/04 04:12:30;;;;;;;204.77;191.80;;;5.60;99.90;;;;;;4420976;32;20167;-63
2021/12/04 04:14:56;;;;;;;197.23;184.47;;;5.60;99.90;;;;;;4423260;32;20583;-62
2021/12/04 04:17:26;;;;;;;187.00;174.53;;;5.60;99.90;;;;;;4422629;32;20528;-63
2021/12/04 04:19:54;;;;;;;204.93;192.17;;;5.60;99.90;;;;;;4423050;32;20169;-63
2021/12/04 04:22:20;;;;;;;196.07;183.60;;;5.60;99.90;;;;;;4413697;32;20167;-63
2021/12/04 04:24:47;;;;;;;215.03;200.97;;;5.60;99.90;;;;;;4418368;32;20214;-63
2021/12/04 04:27:14;;;;;;;221.70;207.87;;;5.60;99.90;;;;;;4408504;32;20610;-63
2021/12/04 04:29:41;;;;;;;212.00;197.80;;;5.60;99.90;;;;;;4420261;32;20233;-63
2021/12/04 04:32:08;;;;;;;199.83;186.63;;;5.60;99.90;;;;;;4419524;32;20526;-63
2021/12/04 04:34:36;;;;;;;201.90;188.57;;;5.60;99.90;;;;;;4422907;32;20587;-62
2021/12/04 04:37:15;;;;;;;204.67;190.83;;;5.60;99.90;;;;;;4418671;32;20170;-63
2021/12/04 04:59:07;;;;;;;206.80;193.17;;;5.60;99.90;;;;;;4418305;32;20158;-63
2021/12/04 05:12:35;;;;;;;209.87;195.33;;;5.60;99.90;;;;;;4415820;32;20189;-63
2021/12/04 05:15:12;;;;;;;202.27;188.47;;;5.60;99.90;;;;;;4420415;32;20179;-63
2021/12/04 05:17:53;;;;;;;200.60;187.30;;;5.60;99.90;;;;;;4410322;32;20217;-62
2021/12/04 05:20:21;;;;;;;217.50;203.37;;;5.60;99.90;;;;;;4418287;32;20214;-63
2021/12/04 05:22:48;;;;;;;206.90;193.27;;;5.60;99.90;;;;;;4422206;32;20167;-63
2021/12/04 05:25:16;;;;;;;217.47;203.23;;;5.60;99.90;;;;;;4410511;32;20167;-63
2021/12/04 05:27:43;;;;;;;220.23;205.47;;;5.60;99.90;;;;;;4422226;32;20190;-63
2021/12/04 05:30:11;;;;;;;209.07;194.43;;;5.60;99.90;;;;;;4420488;32;20523;-63
2021/12/04 05:32:37;;;;;;;206.43;192.83;;;5.60;99.90;;;;;;4420093;32;20167;-63
2021/12/04 05:35:05;;;;;;;213.73;198.60;;;5.60;99.90;;;;;;4422191;32;20169;-63
2021/12/04 05:37:32;;;;;;;216.37;202.47;;;5.60;99.90;;;;;;4407900;32;20218;-63
2021/12/04 05:39:59;;;;;;;209.93;195.47;;;5.60;99.90;;;;;;4421881;32;20226;-63
2021/12/04 05:42:29;;;;;;;209.57;196.73;;;5.60;99.90;;;;;;4419095;32;20148;-62
2021/12/04 05:44:56;;;;;;;201.43;188.40;;;5.70;99.90;;;;;;4410924;32;20227;-63
2021/12/04 05:47:25;;;;;;;204.30;190.93;;;5.70;99.90;;;;;;4407805;32;20163;-63
2021/12/04 05:49:58;;;;;;;205.60;192.70;;;5.70;99.90;;;;;;4415607;32;20162;-63
2021/12/04 05:52:37;;;;;;;209.53;196.27;;;5.60;99.90;;;;;;4413253;32;20166;-63
2021/12/04 05:55:13;;;;;;;206.07;192.43;;;5.70;99.90;;;;;;4418689;32;20224;-63
2021/12/04 05:57:41;;;;;;;215.47;201.33;;;5.60;99.90;;;;;;4409832;32;20159;-62
2021/12/04 06:00:11;;;;;;;205.60;193.20;;;5.60;99.90;;;;;;4413246;32;20167;-63
2021/12/04 06:02:39;;;;;;;211.93;198.33;;;5.60;99.90;;;;;;4421254;32;20147;-62
2021/12/04 06:05:06;;;;;;;198.80;185.57;;;5.60;99.90;;;;;;4414392;32;20173;-63
2021/12/04 06:07:33;;;;;;;210.97;197.77;;;5.60;99.90;;;;;;4412412;32;20230;-63
2021/12/04 06:10:00;;;;;;;201.60;188.37;;;5.60;99.90;;;;;;4425023;32;20208;-63
2021/12/04 06:12:27;;;;;;;213.50;200.27;;;5.60;99.90;;;;;;4422567;32;20170;-63
2021/12/04 06:14:55;;;;;;;216.47;201.00;;;5.60;99.90;;;;;;4425018;32;20182;-63
2021/12/04 06:17:23;;;;;;;202.70;189.70;;;5.60;99.90;;;;;;4410389;32;20173;-62
2021/12/04 06:22:41;;;;;;;220.70;206.80;;;5.60;99.90;;;;;;4424223;32;20162;-63
2021/12/04 06:25:10;;;;;;;209.03;194.73;;;5.60;99.90;;;;;;4421894;32;20152;-62
2021/12/04 06:27:37;;;;;;;197.30;184.27;;;5.60;99.90;;;;;;4424163;32;20167;-63
2021/12/04 06:30:08;;;;;;;220.87;205.93;;;5.60;99.90;;;;;;4422061;32;20536;-63
2021/12/04 06:32:36;;;;;;;199.73;186.37;;;5.60;99.90;;;;;;4422833;32;20167;-63
2021/12/04 06:35:04;;;;;;;196.27;182.87;;;5.60;99.90;;;;;;4410540;32;20152;-62
2021/12/04 06:37:31;;;;;;;194.77;181.20;;;5.60;99.90;;;;;;4420211;32;20228;-62
2021/12/04 06:39:58;;;;;;;189.70;177.23;;;5.60;99.90;;;;;;4421175;32;20197;-63
2021/12/04 06:42:25;;;;;;;209.47;195.23;;;5.60;99.90;;;;;;4424589;32;20186;-63
2021/12/04 06:44:54;;;;;;;200.93;187.33;;;5.70;99.90;;;;;;4412608;32;20164;-63
2021/12/04 06:47:23;;;;;;;200.97;187.33;;;5.60;99.90;;;;;;4421587;32;20159;-62
2021/12/04 06:49:51;;;;;;;202.17;188.40;;;5.60;99.90;;;;;;4420120;32;20167;-63
2021/12/04 06:52:21;;;;;;;204.03;191.03;;;5.60;99.90;;;;;;4415452;32;20159;-62
2021/12/04 06:54:54;;;;;;;211.27;197.30;;;5.60;99.90;;;;;;4417850;32;20571;-63
2021/12/04 06:57:21;;;;;;;209.80;195.60;;;5.60;99.90;;;;;;4424149;32;20179;-63
2021/12/04 06:59:49;;;;;;;196.20;182.73;;;5.70;99.90;;;;;;4419894;32;20487;-64
2021/12/04 07:02:15;;;;;;;212.20;198.17;;;5.60;99.90;;;;;;4415494;32;20148;-63
2021/12/04 07:04:44;;;;;;;203.40;190.00;;;5.60;99.90;;;;;;4424187;32;20219;-63
2021/12/04 07:07:12;;;;;;;212.93;198.10;;;5.60;99.90;;;;;;4423779;32;20224;-63
2021/12/04 07:09:39;;;;;;;203.53;189.33;;;5.60;99.90;;;;;;4414773;32;20175;-63
2021/12/04 07:12:07;;;;;;;214.87;200.13;;;5.60;99.90;;;;;;4422329;32;20218;-63
2021/12/04 07:14:35;;;;;;;198.00;184.50;;;5.70;99.90;;;;;;4414999;32;20576;-63
2021/12/04 07:17:05;;;;;;;205.27;190.63;;;5.60;99.90;;;;;;4424393;32;20177;-63
2021/12/04 07:19:33;;;;;;;214.43;199.20;;;5.60;99.90;;;;;;4420158;32;20147;-64
2021/12/04 07:22:02;;;;;;;217.17;201.77;;;5.70;99.90;;;;;;4422606;32;20171;-63
2021/12/04 07:24:31;;;;;;;213.63;198.30;;;5.60;99.90;;;;;;4421010;32;20144;-63
2021/12/04 07:26:57;;;;;;;203.23;188.43;;;5.70;99.90;;;;;;4424404;32;20162;-62
2021/12/04 07:29:24;;;;;;;207.33;193.57;;;5.60;99.90;;;;;;4431216;32;20211;-63
2021/12/04 07:31:51;;;;;;;199.77;184.83;;;5.70;99.90;;;;;;4423209;32;20604;-63
2021/12/04 07:34:18;;;;;;;204.93;190.03;;;5.70;99.90;;;;;;4421175;32;20262;-63
2021/12/04 07:36:45;;;;;;;197.80;183.33;;;5.70;99.90;;;;;;4421739;32;20181;-63
2021/12/04 07:39:13;;;;;;;204.83;190.03;;;5.70;99.90;;;;;;4412499;32;20223;-64
2021/12/04 07:41:42;;;;;;;209.03;192.77;;;5.70;99.90;;;;;;4421130;32;20207;-62
2021/12/04 07:44:10;;;;;;;207.33;191.77;;;5.70;99.90;;;;;;4423215;32;20313;-63
2021/12/04 07:46:37;;;;;;;202.67;187.27;;;5.80;99.90;;;;;;4420777;32;20151;-63
2021/12/04 07:49:04;;;;;;;211.27;196.50;;;5.70;99.90;;;;;;4422225;32;20148;-62
2021/12/04 07:51:30;;;;;;;195.57;180.83;;;5.70;99.90;;;;;;4418972;32;20152;-63
2021/12/04 07:53:57;;;;;;;197.07;182.03;;;5.70;99.90;;;;;;4420323;32;20194;-63
2021/12/04 07:56:26;;;;;;;199.10;184.37;;;5.80;99.90;;;;;;4421604;32;20163;-63
2021/12/04 07:58:54;;;;;;;194.90;180.87;;;5.80;99.90;;;;;;4421361;32;20222;-63
2021/12/04 08:01:21;;;;;;;198.50;183.97;;;5.80;99.90;;;;;;4421425;32;20163;-63
2021/12/04 08:03:48;;;;;;;205.70;190.50;;;5.80;99.90;;;;;;4417539;32;20166;-62
2021/12/04 08:06:15;;;;;;;198.37;182.67;;;5.80;99.90;;;;;;4413013;32;20172;-63
2021/12/04 08:08:43;;;;;;;218.77;202.73;;;5.70;99.90;;;;;;4419207;32;20642;-63
2021/12/04 08:11:10;;;;;;;176.33;163.20;;;5.70;99.90;;;;;;4419279;32;20155;-62
2021/12/04 08:13:38;;;;;;;201.47;186.80;;;5.70;99.90;;;;;;4418448;32;20222;-64
2021/12/04 08:16:05;;;;;;;211.90;196.33;;;5.70;99.90;;;;;;4418978;32;20230;-64
2021/12/04 08:18:32;;;;;;;202.47;187.40;;;5.70;99.90;;;;;;4412435;32;20293;-64
2021/12/04 08:20:59;;;;;;;201.37;187.20;;;5.70;99.90;;;;;;4418659;32;20560;-63
2021/12/04 08:23:26;;;;;;;210.73;195.83;;;5.70;99.90;;;;;;4419255;32;20159;-64
2021/12/04 08:25:53;;;;;;;192.47;178.63;;;5.80;99.90;;;;;;4413181;32;20190;-62
2021/12/04 08:28:20;;;;;;;186.13;172.37;;;5.70;99.90;;;;;;4414888;32;20220;-62
2021/12/04 08:30:48;;;;;;;192.50;178.83;;;5.70;99.90;;;;;;4414773;32;20143;-62
2021/12/04 08:33:15;;;;;;;183.23;169.63;;;5.70;99.90;;;;;;4417929;32;20531;-62
2021/12/04 08:35:41;;;;;;;204.57;191.17;;;5.80;99.90;;;;;;4417398;32;20206;-63
2021/12/04 08:38:10;;;;;;;203.40;189.50;;;5.80;99.90;;;;;;4422852;32;20174;-63
2021/12/04 08:40:41;;;;;;;186.37;172.87;;;5.90;99.90;;;;;;4419838;32;20219;-65
2021/12/04 08:43:09;;;;;;;187.33;175.03;;;5.90;99.90;;;;;;4421742;32;20181;-64
2021/12/04 08:45:36;;;;;;;193.77;180.80;;;5.90;99.90;;;;;;4418466;32;20234;-64
2021/12/04 08:48:05;;;;;;;194.83;182.30;;;5.90;99.90;;;;;;4420469;32;20227;-63
2021/12/04 08:50:33;;;;;;;200.87;188.17;;;5.90;99.90;;;;;;4420569;32;20262;-62
2021/12/04 08:53:02;;;;;;;201.87;189.23;;;6.00;99.90;;;;;;4418883;32;20215;-62
2021/12/04 08:55:30;;;;;;;200.80;188.50;;;5.90;99.90;;;;;;4416836;32;20171;-63
2021/12/04 08:57:58;;;;;;;186.67;174.70;;;6.00;99.90;;;;;;4420212;32;20190;-63
2021/12/04 09:00:30;;;;;;;190.90;179.43;;;6.00;99.90;;;;;;4421931;32;20226;-64
2021/12/04 09:02:58;;;;;;;191.70;180.27;;;6.10;99.90;;;;;;4417718;32;20169;-63
2021/12/04 09:05:27;;;;;;;193.40;181.67;;;6.10;99.90;;;;;;4420179;32;20197;-63
2021/12/04 09:07:54;;;;;;;189.07;176.77;;;6.10;99.90;;;;;;4420701;32;20214;-63
2021/12/04 09:10:23;;;;;;;192.90;180.47;;;6.10;99.90;;;;;;4420344;32;20156;-63
2021/12/04 09:12:50;;;;;;;204.07;190.97;;;6.20;99.90;;;;;;4419574;32;20244;-63
2021/12/04 09:15:21;;;;;;;190.37;178.90;;;6.10;99.90;;;;;;4420313;32;20222;-64
2021/12/04 09:17:48;;;;;;;184.63;172.90;;;6.10;99.90;;;;;;4419811;32;20163;-63
2021/12/04 09:20:17;;;;;;;192.60;181.00;;;6.20;99.90;;;;;;4410711;32;20139;-63
2021/12/04 09:22:46;;;;;;;193.27;180.77;;;6.30;99.90;;;;;;4417115;32;20486;-63
2021/12/04 09:25:16;;;;;;;195.50;182.97;;;6.30;99.90;;;;;;4420701;32;20218;-62
2021/12/04 09:27:59;;;;;;;187.00;175.17;;;6.40;99.90;;;;;;4419291;32;20159;-62
2021/12/04 10:01:14;;;;;;;202.20;190.57;;;6.50;99.90;;;;;;4362318;32;20238;-65
2021/12/04 10:04:15;;;;;;;224.13;211.07;;;6.40;99.90;;;;;;4368910;32;20182;-63
2021/12/04 10:12:38;;;;;;;214.10;201.70;;;6.40;99.90;;;;;;4380265;32;20243;-64
2021/12/04 10:18:09;;;;;;;236.30;223.40;;;6.40;99.90;;;;;;4428178;32;20256;-64
2021/12/04 10:20:45;;;;;;;245.77;232.67;;;6.40;99.90;;;;;;4426357;32;20147;-64
2021/12/04 10:34:35;;;;;;;226.40;212.90;;;6.60;99.90;;;;;;4422897;32;20182;-64
2021/12/04 10:37:05;;;;;;;228.87;215.90;;;6.70;99.90;;;;;;4426217;32;20213;-65
2021/12/04 10:39:32;;;;;;;239.73;226.10;;;6.80;99.90;;;;;;4426117;32;20152;-65
2021/12/04 10:42:03;;;;;;;227.33;213.87;;;6.80;99.90;;;;;;4427252;32;20159;-65
2021/12/04 10:44:31;;;;;;;225.67;212.77;;;6.70;99.90;;;;;;4426293;32;20154;-62
2021/12/04 10:47:03;;;;;;;216.10;203.43;;;6.80;99.90;;;;;;4426465;32;20194;-62
2021/12/04 10:49:39;;;;;;;235.97;222.83;;;6.80;99.90;;;;;;4423716;32;20212;-65
2021/12/04 10:52:18;;;;;;;221.90;209.13;;;6.90;99.90;;;;;;4426941;32;20628;-61
2021/12/04 10:54:50;;;;;;;216.57;204.17;;;6.90;99.90;;;;;;4424241;32;20204;-61
2021/12/04 10:57:38;;;;;;;228.33;215.20;;;7.00;99.90;;;;;;4425893;32;20156;-62
2021/12/04 11:00:11;;;;;;;216.77;203.60;;;7.00;99.90;;;;;;4425378;32;20215;-63
2021/12/04 11:02:42;;;;;;;216.07;202.90;;;7.00;99.90;;;;;;4422101;32;20244;-63
2021/12/04 11:22:21;;;;;;;214.53;201.90;;;6.80;99.90;;;;;;4417429;32;20257;-62
2021/12/04 11:39:24;;;;;;;193.10;180.73;;;6.80;99.90;;;;;;4330321;33;20292;-64
2021/12/04 11:42:03;;;;;;;199.47;187.20;;;6.80;99.90;;;;;;4333388;33;20157;-63
2021/12/04 11:44:44;;;;;;;208.43;194.67;;;6.80;99.90;;;;;;4332742;33;20191;-62
2021/12/04 11:47:11;;;;;;;213.10;200.17;;;6.80;99.90;;;;;;4326698;33;20192;-64
2021/12/04 11:49:38;;;;;;;200.50;187.13;;;6.80;99.90;;;;;;4328086;33;20256;-64
2021/12/04 11:52:11;;;;;;;211.07;198.13;;;6.70;99.90;;;;;;4326688;33;20606;-64
2021/12/04 11:54:45;;;;;;;217.40;203.57;;;6.70;99.90;;;;;;4326587;33;20165;-63
2021/12/04 11:57:14;;;;;;;211.57;197.87;;;6.70;99.90;;;;;;4324406;33;20217;-62
2021/12/04 11:59:45;;;;;;;211.60;197.30;;;6.70;99.90;;;;;;4322386;33;20179;-63
2021/12/04 12:02:18;;;;;;;203.80;190.47;;;6.60;99.90;;;;;;4323723;33;20169;-63
2021/12/04 12:04:49;;;;;;;213.03;198.70;;;6.70;99.90;;;;;;4351453;32;20176;-63
2021/12/04 12:07:19;;;;;;;198.73;185.47;;;6.70;99.90;;;;;;4377448;32;20178;-63
2021/12/04 12:09:49;;;;;;;214.00;200.20;;;6.70;99.90;;;;;;4376871;32;20293;-63
2021/12/04 12:12:17;;;;;;;211.33;197.50;;;6.80;99.90;;;;;;4380134;32;20265;-63
2021/12/04 12:14:50;;;;;;;211.77;198.23;;;6.80;99.90;;;;;;4384069;32;20270;-63
2021/12/04 12:17:30;;;;;;;215.20;201.37;;;6.90;99.90;;;;;;4412272;32;20160;-63
2021/12/04 12:19:57;;;;;;;213.10;199.57;;;6.80;99.90;;;;;;4426817;32;20155;-62
2021/12/04 12:22:34;;;;;;;207.57;193.70;;;6.90;99.90;;;;;;4427723;32;20235;-64
2021/12/04 12:25:28;;;;;;;201.13;187.53;;;6.90;99.90;;;;;;4417343;32;20159;-64
2021/12/04 12:33:38;;;;;;;206.53;193.70;;;6.90;99.90;;;;;;4431163;32;20226;-63
2021/12/04 12:36:09;;;;;;;196.43;184.63;;;6.90;99.90;;;;;;4433633;32;20200;-63
2021/12/04 12:38:51;;;;;;;199.03;186.80;;;6.90;99.90;;;;;;4420158;32;20145;-62
2021/12/04 12:41:28;;;;;;;193.73;181.70;;;6.90;99.90;;;;;;4412092;32;20156;-62
2021/12/04 12:44:03;;;;;;;182.53;171.40;;;7.00;99.90;;;;;;4414127;32;20182;-63
2021/12/04 12:46:37;;;;;;;186.13;175.40;;;6.90;99.90;;;;;;4410336;32;20183;-63
2021/12/04 12:49:06;;;;;;;186.83;175.47;;;6.90;99.90;;;;;;4413591;32;20206;-63
2021/12/04 12:51:36;;;;;;;181.30;170.53;;;6.90;99.90;;;;;;4410101;32;20232;-62
2021/12/04 12:54:06;;;;;;;192.13;181.07;;;6.90;99.90;;;;;;4403659;32;20148;-63
2021/12/04 12:56:37;;;;;;;193.63;182.40;;;6.90;99.90;;;;;;4409816;32;20168;-63
2021/12/04 12:59:08;;;;;;;184.13;173.57;;;7.00;99.90;;;;;;4404447;32;20167;-63
2021/12/04 13:12:48;;;;;;;208.70;196.03;;;6.80;99.90;;;;;;4406241;32;20612;-63
2021/12/04 13:15:29;;;;;;;201.13;189.73;;;6.70;99.90;;;;;;4404521;32;20159;-62
2021/12/04 13:18:08;;;;;;;194.23;182.37;;;6.50;99.90;;;;;;4404048;32;20189;-63
2021/12/04 13:20:35;;;;;;;202.03;190.27;;;6.50;99.90;;;;;;4403733;32;20152;-62
2021/12/04 13:23:10;;;;;;;191.20;179.60;;;6.40;99.90;;;;;;4405911;32;20186;-64
2021/12/04 13:25:37;;;;;;;204.23;191.97;;;6.40;99.90;;;;;;4407043;32;20167;-63
2021/12/04 13:30:29;;;;;;;176.73;166.17;;;6.40;99.90;;;;;;4420711;32;20186;-63
2021/12/04 13:32:58;;;;;;;194.03;181.53;;;6.40;99.90;;;;;;4419156;32;20177;-62
2021/12/04 13:35:25;;;;;;;179.30;168.47;;;6.40;99.90;;;;;;4413213;32;20255;-63
2021/12/04 13:38:00;;;;;;;197.07;185.43;;;6.40;99.90;;;;;;4419893;32;20171;-62
2021/12/04 13:40:28;;;;;;;190.50;179.23;;;6.40;99.90;;;;;;4417021;32;20204;-63
2021/12/04 13:42:56;;;;;;;185.30;174.27;;;6.40;99.90;;;;;;4417768;32;20171;-62
2021/12/04 13:45:24;;;;;;;176.60;165.37;;;6.30;99.90;;;;;;4418966;32;20485;-63
2021/12/04 13:47:52;;;;;;;163.63;154.30;;;6.30;99.90;;;;;;4419553;32;20178;-63
2021/12/04 13:53:07;;;;;;;158.27;148.43;;;6.30;99.90;;;;;;4418394;32;20228;-63
2021/12/04 13:55:38;;;;;;;62.67;56.60;;;6.30;99.90;;;;;;4416619;32;20214;-64
2021/12/04 13:58:06;;;;;;;62.93;57.00;;;6.30;99.90;;;;;;4417307;32;20187;-63
2021/12/04 14:00:34;;;;;;;62.23;55.47;;;6.30;99.90;;;;;;4417629;32;20175;-62
2021/12/04 14:03:01;;;;;;;54.67;49.20;;;6.30;99.90;;;;;;4416393;32;20195;-62
2021/12/04 14:05:31;;;;;;;49.13;44.20;;;6.40;99.90;;;;;;4417536;32;20211;-61
2021/12/04 14:07:59;;;;;;;50.50;43.33;;;6.40;99.90;;;;;;4416677;32;20286;-63
2021/12/04 14:10:29;;;;;;;49.93;44.63;;;6.40;99.90;;;;;;4420168;32;20563;-62
2021/12/04 14:12:57;;;;;;;51.30;46.03;;;6.30;99.90;;;;;;4413543;32;20241;-62
2021/12/04 14:15:26;;;;;;;51.63;47.10;;;6.40;99.90;;;;;;4417043;32;20207;-63
2021/12/04 14:18:02;;;;;;;50.53;45.70;;;6.40;99.90;;;;;;4417521;32;20269;-63
2021/12/04 14:20:31;;;;;;;50.80;46.00;;;6.50;99.90;;;;;;4417769;32;20171;-63
2021/12/04 14:22:59;;;;;;;52.80;47.73;;;6.50;99.90;;;;;;4418593;32;20178;-62
2021/12/04 14:25:27;;;;;;;51.70;46.47;;;6.50;99.90;;;;;;4414136;32;20619;-64
2021/12/04 14:27:57;;;;;;;45.60;41.17;;;6.40;99.90;;;;;;4420546;32;20171;-63
2021/12/04 14:30:27;;;;;;;47.77;42.73;;;6.50;99.90;;;;;;4422620;32;20171;-61
2021/12/04 14:32:55;;;;;;;47.70;43.23;;;6.50;99.90;;;;;;4420803;32;20645;-63
2021/12/04 14:35:26;;;;;;;47.43;42.57;;;6.50;99.90;;;;;;4421230;32;20147;-62
2021/12/04 14:37:56;;;;;;;48.97;44.50;;;6.50;99.90;;;;;;4419567;32;20167;-63
2021/12/04 14:40:25;;;;;;;46.23;41.57;;;6.40;99.90;;;;;;4414830;32;20151;-63
2021/12/04 14:42:54;;;;;;;51.37;45.97;;;6.40;99.90;;;;;;4414142;32;20210;-62
2021/12/04 14:45:23;;;;;;;54.70;49.37;;;6.40;99.90;;;;;;4418928;32;20192;-62
2021/12/04 14:47:55;;;;;;;52.93;47.67;;;6.30;99.90;;;;;;4418578;32;20173;-64
2021/12/04 14:50:23;;;;;;;57.27;51.67;;;6.30;99.90;;;;;;4410328;32;20570;-63
2021/12/04 14:52:52;;;;;;;51.53;46.40;;;6.30;99.90;;;;;;4417741;32;20160;-63
2021/12/04 14:55:23;;;;;;;50.83;45.93;;;6.30;99.90;;;;;;4416490;32;20215;-63
2021/12/04 14:57:50;;;;;;;49.40;44.40;;;6.30;99.90;;;;;;4419101;32;20186;-63